createdAt,value
2022-12-29T00:00:48.997Z,1.00
2022-12-29T00:01:51.066Z,1.30
2022-12-29T00:02:55.529Z,1.13
2022-12-29T00:03:57.988Z,1.10
2022-12-29T00:05:01.066Z,1.40
2022-12-29T00:06:03.730Z,1.40
2022-12-29T00:07:06.937Z,1.70
2022-12-29T00:08:08.946Z,1.60
2022-12-29T00:09:13.422Z,1.30
2022-12-29T00:10:15.578Z,1.40
2022-12-29T00:11:21.281Z,1.50
2022-12-29T00:12:23.458Z,1.40
2022-12-29T00:13:44.185Z,1.53
2022-12-29T00:15:04.828Z,1.60
2022-12-29T00:16:09.405Z,1.30
2022-12-29T00:17:12.411Z,1.30
2022-12-29T00:18:15.756Z,1.37
2022-12-29T00:19:39.274Z,1.33
2022-12-29T00:20:59.684Z,1.37
2022-12-29T00:22:20.159Z,1.10
2022-12-29T00:23:41.068Z,1.67
2022-12-29T00:25:01.976Z,1.20
2022-12-29T00:26:32.108Z,1.33
2022-12-29T00:27:54.172Z,1.30
2022-12-29T00:29:14.540Z,1.10
2022-12-29T00:30:36.972Z,1.40
2022-12-29T00:31:57.365Z,1.20
2022-12-29T00:33:17.740Z,1.30
2022-12-29T00:34:40.042Z,1.27
2022-12-29T00:35:48.086Z,1.50
2022-12-29T00:36:50.139Z,1.20
2022-12-29T00:38:11.809Z,1.20
2022-12-29T00:39:36.701Z,1.07
2022-12-29T00:40:57.077Z,1.30
2022-12-29T00:42:23.566Z,1.30
2022-12-29T00:43:44.173Z,1.40
2022-12-29T00:44:47.427Z,1.10
2022-12-29T00:45:49.827Z,1.87
2022-12-29T00:46:52.892Z,1.20
2022-12-29T00:47:55.105Z,1.40
2022-12-29T00:49:16.576Z,1.30
2022-12-29T00:50:22.358Z,1.20
2022-12-29T00:51:25.912Z,1.20
2022-12-29T00:52:29.249Z,1.20
2022-12-29T00:53:31.456Z,1.73
2022-12-29T00:54:36.873Z,1.20
2022-12-29T00:55:39.143Z,1.20
2022-12-29T00:56:42.211Z,1.20
2022-12-29T00:57:45.173Z,1.20
2022-12-29T00:58:47.186Z,1.40
2022-12-29T00:59:50.160Z,1.27
2022-12-29T01:00:52.237Z,1.00
2022-12-29T01:01:56.689Z,1.40
2022-12-29T01:02:58.939Z,1.00
2022-12-29T01:04:04.510Z,1.10
2022-12-29T01:05:08.184Z,1.10
2022-12-29T01:06:12.181Z,1.27
2022-12-29T01:07:15.193Z,1.10
2022-12-29T01:08:17.273Z,1.50
2022-12-29T01:09:39.814Z,1.27
2022-12-29T01:10:41.869Z,1.23
2022-12-29T01:11:44.891Z,1.20
2022-12-29T01:12:48.369Z,1.40
2022-12-29T01:13:50.454Z,1.60
2022-12-29T01:14:53.453Z,1.30
2022-12-29T01:15:56.258Z,0.97
2022-12-29T01:16:59.317Z,1.50
2022-12-29T01:18:01.350Z,1.30
2022-12-29T01:19:04.463Z,1.23
2022-12-29T01:20:07.555Z,1.40
2022-12-29T01:21:14.008Z,1.47
2022-12-29T01:22:16.138Z,1.07
2022-12-29T01:23:20.966Z,1.20
2022-12-29T01:24:23.306Z,1.20
2022-12-29T01:25:26.382Z,1.20
2022-12-29T01:26:28.466Z,1.40
2022-12-29T01:27:31.567Z,1.20
2022-12-29T01:28:34.722Z,1.53
2022-12-29T01:29:37.719Z,1.10
2022-12-29T01:30:40.842Z,1.33
2022-12-29T01:31:43.996Z,1.37
2022-12-29T01:32:46.134Z,1.30
2022-12-29T01:33:49.349Z,1.30
2022-12-29T01:34:51.409Z,1.50
2022-12-29T01:35:54.809Z,1.30
2022-12-29T01:36:58.165Z,1.70
2022-12-29T01:38:01.302Z,1.43
2022-12-29T01:39:03.702Z,1.20
2022-12-29T01:40:07.667Z,1.33
2022-12-29T01:41:11.387Z,1.23
2022-12-29T01:42:18.054Z,1.43
2022-12-29T01:43:20.259Z,1.40
2022-12-29T01:44:53.990Z,1.50
2022-12-29T01:45:56.614Z,1.30
2022-12-29T01:46:59.646Z,1.60
2022-12-29T01:48:05.766Z,1.30
2022-12-29T01:49:14.187Z,1.20
2022-12-29T01:50:22.254Z,1.47
2022-12-29T01:51:29.267Z,1.67
2022-12-29T01:52:37.530Z,1.63
2022-12-29T01:53:39.932Z,1.30
2022-12-29T01:54:48.274Z,1.47
2022-12-29T01:55:56.440Z,1.30
2022-12-29T01:57:01.980Z,1.43
2022-12-29T01:58:07.702Z,1.40
2022-12-29T01:59:15.487Z,1.27
2022-12-29T02:00:18.871Z,1.40
2022-12-29T02:01:23.087Z,1.40
2022-12-29T02:02:26.902Z,1.20
2022-12-29T02:03:33.005Z,1.27
2022-12-29T02:04:40.482Z,1.40
2022-12-29T02:05:49.279Z,1.20
2022-12-29T02:06:54.681Z,1.20
2022-12-29T02:07:59.085Z,1.30
2022-12-29T02:09:01.316Z,1.40
2022-12-29T02:10:05.198Z,1.70
2022-12-29T02:11:08.113Z,1.40
2022-12-29T02:12:12.092Z,1.60
2022-12-29T02:13:17.405Z,1.40
2022-12-29T02:14:20.349Z,1.37
2022-12-29T02:15:33.491Z,1.40
2022-12-29T02:16:49.080Z,1.30
2022-12-29T02:18:05.214Z,1.20
2022-12-29T02:19:40.492Z,1.57
2022-12-29T02:21:25.992Z,1.00
2022-12-29T02:22:33.796Z,1.30
2022-12-29T02:24:09.656Z,1.23
2022-12-29T02:25:34.736Z,1.20
2022-12-29T02:26:50.741Z,1.40
2022-12-29T02:28:21.838Z,1.17
2022-12-29T02:29:44.776Z,1.40
2022-12-29T02:31:01.164Z,1.30
2022-12-29T02:32:08.898Z,1.70
2022-12-29T02:33:23.666Z,1.43
2022-12-29T02:34:38.707Z,1.50
2022-12-29T02:35:50.249Z,1.43
2022-12-29T02:37:01.926Z,1.20
2022-12-29T02:38:15.503Z,1.20
2022-12-29T02:39:24.764Z,1.40
2022-12-29T02:40:37.851Z,1.30
2022-12-29T02:41:49.318Z,1.40
2022-12-29T02:42:54.091Z,1.57
2022-12-29T02:44:05.175Z,1.50
2022-12-29T02:45:15.328Z,1.63
2022-12-29T02:46:24.719Z,1.40
2022-12-29T02:47:38.295Z,1.50
2022-12-29T02:48:47.215Z,1.53
2022-12-29T02:49:56.651Z,1.50
2022-12-29T02:51:02.563Z,1.70
2022-12-29T02:52:08.714Z,1.40
2022-12-29T02:53:14.165Z,1.50
2022-12-29T02:54:37.572Z,1.50
2022-12-29T02:55:50.005Z,1.67
2022-12-29T02:56:52.067Z,1.60
2022-12-29T02:58:17.156Z,1.50
2022-12-29T02:59:19.667Z,1.70
2022-12-29T03:00:22.690Z,1.43
2022-12-29T03:01:39.174Z,1.60
2022-12-29T03:03:06.291Z,1.50
2022-12-29T03:04:24.707Z,1.60
2022-12-29T03:05:43.446Z,1.60
2022-12-29T03:06:55.602Z,1.50
2022-12-29T03:08:08.182Z,1.27
2022-12-29T03:09:20.660Z,1.97
2022-12-29T03:10:32.919Z,1.70
2022-12-29T03:12:04.834Z,1.50
2022-12-29T03:13:35.135Z,1.60
2022-12-29T03:15:06.747Z,1.40
2022-12-29T03:16:22.896Z,1.63
2022-12-29T03:17:34.610Z,1.50
2022-12-29T03:18:57.137Z,1.50
2022-12-29T03:20:05.225Z,1.50
2022-12-29T03:21:14.447Z,1.57
2022-12-29T03:22:28.539Z,1.70
2022-12-29T03:23:48.592Z,1.50
2022-12-29T03:24:54.674Z,1.70
2022-12-29T03:26:02.572Z,1.70
2022-12-29T03:27:07.954Z,1.80
2022-12-29T03:28:20.083Z,1.87
2022-12-29T03:29:22.882Z,1.80
2022-12-29T03:30:28.110Z,1.80
2022-12-29T03:31:30.562Z,1.70
2022-12-29T03:32:40.164Z,1.63
2022-12-29T03:33:44.208Z,1.70
2022-12-29T03:34:48.507Z,1.63
2022-12-29T03:35:55.083Z,1.73
2022-12-29T03:37:04.448Z,1.60
2022-12-29T03:38:12.123Z,1.90
2022-12-29T03:39:16.081Z,2.00
2022-12-29T03:40:19.794Z,2.00
2022-12-29T03:41:27.844Z,1.70
2022-12-29T03:42:33.619Z,1.83
2022-12-29T03:43:36.911Z,1.47
2022-12-29T03:44:41.953Z,1.90
2022-12-29T03:45:46.072Z,1.70
2022-12-29T03:46:48.135Z,1.80
2022-12-29T03:47:53.699Z,2.10
2022-12-29T03:48:55.883Z,1.80
2022-12-29T03:50:00.295Z,1.97
2022-12-29T03:51:02.477Z,1.70
2022-12-29T03:52:06.105Z,1.90
2022-12-29T03:53:12.654Z,1.60
2022-12-29T03:54:15.657Z,1.90
2022-12-29T03:55:18.616Z,2.53
2022-12-29T03:56:22.025Z,2.00
2022-12-29T03:57:25.154Z,1.80
2022-12-29T03:58:34.948Z,2.10
2022-12-29T03:59:44.430Z,2.13
2022-12-29T04:00:48.102Z,1.87
2022-12-29T04:01:50.352Z,1.77
2022-12-29T04:02:54.980Z,1.80
2022-12-29T04:03:58.592Z,1.80
2022-12-29T04:05:02.391Z,1.97
2022-12-29T04:06:04.617Z,1.83
2022-12-29T04:07:15.318Z,1.70
2022-12-29T04:08:18.242Z,2.00
2022-12-29T04:09:21.337Z,1.90
2022-12-29T04:10:25.104Z,1.87
2022-12-29T04:11:33.347Z,1.70
2022-12-29T04:12:37.831Z,2.10
2022-12-29T04:13:41.896Z,1.80
2022-12-29T04:14:45.756Z,1.80
2022-12-29T04:15:48.862Z,1.80
2022-12-29T04:16:50.945Z,1.87
2022-12-29T04:17:55.353Z,1.60
2022-12-29T04:18:58.508Z,1.90
2022-12-29T04:20:16.036Z,1.87
2022-12-29T04:21:19.866Z,1.80
2022-12-29T04:22:23.440Z,1.83
2022-12-29T04:23:26.551Z,1.77
2022-12-29T04:24:30.001Z,1.83
2022-12-29T04:25:32.690Z,1.93
2022-12-29T04:26:36.244Z,1.80
2022-12-29T04:28:06.270Z,1.70
2022-12-29T04:29:24.103Z,1.90
2022-12-29T04:30:53.246Z,2.03
2022-12-29T04:32:01.873Z,1.80
2022-12-29T04:33:06.914Z,2.00
2022-12-29T04:34:10.756Z,2.20
2022-12-29T04:35:13.854Z,2.03
2022-12-29T04:36:16.875Z,2.33
2022-12-29T04:37:20.787Z,1.80
2022-12-29T04:38:24.994Z,2.27
2022-12-29T04:39:27.425Z,1.90
2022-12-29T04:40:30.664Z,1.80
2022-12-29T04:41:33.806Z,2.20
2022-12-29T04:42:36.915Z,1.90
2022-12-29T04:43:39.992Z,1.77
2022-12-29T04:45:01.780Z,1.90
2022-12-29T04:46:13.449Z,2.07
2022-12-29T04:47:49.849Z,2.13
2022-12-29T04:49:11.646Z,1.87
2022-12-29T04:50:28.811Z,2.23
2022-12-29T04:51:41.072Z,1.80
2022-12-29T04:52:46.195Z,1.80
2022-12-29T04:53:49.610Z,1.80
2022-12-29T04:54:52.636Z,1.77
2022-12-29T04:55:56.219Z,1.50
2022-12-29T04:56:59.348Z,1.57
2022-12-29T04:58:01.439Z,1.70
2022-12-29T04:59:07.141Z,1.30
2022-12-29T05:00:10.756Z,1.60
2022-12-29T05:01:14.066Z,1.73
2022-12-29T05:02:16.449Z,1.50
2022-12-29T05:03:22.719Z,1.50
2022-12-29T05:04:26.651Z,1.60
2022-12-29T05:05:29.737Z,1.60
2022-12-29T05:06:33.209Z,1.30
2022-12-29T05:07:37.646Z,1.80
2022-12-29T05:08:39.765Z,1.60
2022-12-29T05:09:43.092Z,1.70
2022-12-29T05:10:46.869Z,1.80
2022-12-29T05:11:50.917Z,1.50
2022-12-29T05:12:52.955Z,1.60
2022-12-29T05:13:56.095Z,1.70
2022-12-29T05:14:58.195Z,1.30
2022-12-29T05:16:01.378Z,1.30
2022-12-29T05:17:03.652Z,1.20
2022-12-29T05:18:07.051Z,1.10
2022-12-29T05:19:09.713Z,1.47
2022-12-29T05:20:14.114Z,1.50
2022-12-29T05:21:17.180Z,1.33
2022-12-29T05:22:21.285Z,1.27
2022-12-29T05:23:25.288Z,1.20
2022-12-29T05:24:34.133Z,1.10
2022-12-29T05:25:36.415Z,1.30
2022-12-29T05:26:50.378Z,1.07
2022-12-29T05:28:13.839Z,1.27
2022-12-29T05:29:21.088Z,1.20
2022-12-29T05:30:24.179Z,1.10
2022-12-29T05:31:26.719Z,1.47
2022-12-29T05:32:29.820Z,1.10
2022-12-29T05:33:32.761Z,1.13
2022-12-29T05:34:36.780Z,1.50
2022-12-29T05:35:40.300Z,1.20
2022-12-29T05:36:43.929Z,1.40
2022-12-29T05:37:47.208Z,1.40
2022-12-29T05:38:51.198Z,1.40
2022-12-29T05:39:54.794Z,1.30
2022-12-29T05:40:56.819Z,1.50
2022-12-29T05:42:29.060Z,1.17
2022-12-29T05:43:47.321Z,1.70
2022-12-29T05:45:10.268Z,1.20
2022-12-29T05:46:29.037Z,1.17
2022-12-29T05:47:43.942Z,1.40
2022-12-29T05:49:06.731Z,1.50
2022-12-29T05:50:31.720Z,1.10
2022-12-29T05:51:51.149Z,1.30
2022-12-29T05:52:53.369Z,1.23
2022-12-29T05:53:57.088Z,1.20
2022-12-29T05:54:59.136Z,1.47
2022-12-29T05:56:03.712Z,1.30
2022-12-29T05:57:06.031Z,1.20
2022-12-29T05:58:10.143Z,1.27
2022-12-29T05:59:12.656Z,1.10
2022-12-29T06:00:17.052Z,1.00
2022-12-29T06:01:21.574Z,1.20
2022-12-29T06:02:24.807Z,1.47
2022-12-29T06:03:27.355Z,1.20
2022-12-29T06:04:30.775Z,1.20
2022-12-29T06:05:33.002Z,1.20
2022-12-29T06:06:36.198Z,1.10
2022-12-29T06:07:40.505Z,1.30
2022-12-29T06:08:43.838Z,1.53
2022-12-29T06:09:45.921Z,1.30
2022-12-29T06:10:49.525Z,1.50
2022-12-29T06:11:51.908Z,1.50
2022-12-29T06:12:55.556Z,1.20
2022-12-29T06:13:58.827Z,1.60
2022-12-29T06:15:01.898Z,1.33
2022-12-29T06:16:04.400Z,1.43
2022-12-29T06:17:07.634Z,1.20
2022-12-29T06:18:17.948Z,1.20
2022-12-29T06:19:23.453Z,1.40
2022-12-29T06:20:25.573Z,1.20
2022-12-29T06:21:29.054Z,1.40
2022-12-29T06:22:32.155Z,1.47
2022-12-29T06:23:35.859Z,1.27
2022-12-29T06:24:38.956Z,1.17
2022-12-29T06:25:41.197Z,1.13
2022-12-29T06:26:44.310Z,1.40
2022-12-29T06:27:46.363Z,1.40
2022-12-29T06:28:49.394Z,1.20
2022-12-29T06:29:52.179Z,1.07
2022-12-29T06:30:55.222Z,1.37
2022-12-29T06:31:59.044Z,1.40
2022-12-29T06:33:02.871Z,1.30
2022-12-29T06:34:08.314Z,1.30
2022-12-29T06:35:12.923Z,1.73
2022-12-29T06:36:21.134Z,1.20
2022-12-29T06:37:23.180Z,1.27
2022-12-29T06:38:26.179Z,1.20
2022-12-29T06:39:29.628Z,1.13
2022-12-29T06:40:45.919Z,1.30
2022-12-29T06:42:18.321Z,1.60
2022-12-29T06:43:33.213Z,1.20
2022-12-29T06:45:08.332Z,1.47
2022-12-29T06:46:10.545Z,1.20
2022-12-29T06:47:13.624Z,1.67
2022-12-29T06:48:15.701Z,1.10
2022-12-29T06:49:18.926Z,1.50
2022-12-29T06:50:21.106Z,1.20
2022-12-29T06:51:24.255Z,1.30
2022-12-29T06:52:26.554Z,1.50
2022-12-29T06:53:29.815Z,1.30
2022-12-29T06:54:33.213Z,1.27
2022-12-29T06:55:36.228Z,0.93
2022-12-29T06:56:38.361Z,1.30
2022-12-29T06:57:41.346Z,1.13
2022-12-29T06:58:43.460Z,1.20
2022-12-29T06:59:46.524Z,1.20
2022-12-29T07:00:49.275Z,1.30
2022-12-29T07:01:53.793Z,1.37
2022-12-29T07:02:57.243Z,1.27
2022-12-29T07:04:00.421Z,1.20
2022-12-29T07:05:02.416Z,1.33
2022-12-29T07:06:06.875Z,1.30
2022-12-29T07:07:09.041Z,1.10
2022-12-29T07:08:12.084Z,1.10
2022-12-29T07:09:14.152Z,1.30
2022-12-29T07:10:18.679Z,1.30
2022-12-29T07:11:20.720Z,1.50
2022-12-29T07:12:23.737Z,1.50
2022-12-29T07:13:25.778Z,1.10
2022-12-29T07:14:28.809Z,1.20
2022-12-29T07:15:30.941Z,1.30
2022-12-29T07:16:35.362Z,1.50
2022-12-29T07:17:37.592Z,1.13
2022-12-29T07:18:40.648Z,1.20
2022-12-29T07:19:42.696Z,1.43
2022-12-29T07:20:46.031Z,1.37
2022-12-29T07:21:48.026Z,1.40
2022-12-29T07:22:51.120Z,1.20
2022-12-29T07:23:54.486Z,1.03
2022-12-29T07:24:57.503Z,1.30
2022-12-29T07:26:05.677Z,1.20
2022-12-29T07:27:08.726Z,1.40
2022-12-29T07:28:10.751Z,1.27
2022-12-29T07:29:13.826Z,1.40
2022-12-29T07:30:17.319Z,1.30
2022-12-29T07:31:21.934Z,1.30
2022-12-29T07:32:25.041Z,1.27
2022-12-29T07:33:29.909Z,1.20
2022-12-29T07:34:32.908Z,1.30
2022-12-29T07:35:35.386Z,1.00
2022-12-29T07:36:38.440Z,1.30
2022-12-29T07:37:40.507Z,1.47
2022-12-29T07:38:43.661Z,1.37
2022-12-29T07:39:45.910Z,1.20
2022-12-29T07:40:49.036Z,1.20
2022-12-29T07:41:52.464Z,1.20
2022-12-29T07:42:57.197Z,1.30
2022-12-29T07:44:11.734Z,1.40
2022-12-29T07:45:41.440Z,1.40
2022-12-29T07:46:55.855Z,1.23
2022-12-29T07:48:00.378Z,1.10
2022-12-29T07:49:02.424Z,1.43
2022-12-29T07:50:06.464Z,1.00
2022-12-29T07:51:08.499Z,1.60
2022-12-29T07:52:11.536Z,1.47
2022-12-29T07:53:14.521Z,1.17
2022-12-29T07:54:19.203Z,1.10
2022-12-29T07:55:22.442Z,1.20
2022-12-29T07:56:26.013Z,1.50
2022-12-29T07:57:32.355Z,1.30
2022-12-29T07:58:34.524Z,1.30
2022-12-29T07:59:37.605Z,1.20
2022-12-29T08:00:39.747Z,1.17
2022-12-29T08:01:43.061Z,1.40
2022-12-29T08:02:45.264Z,1.93
2022-12-29T08:03:52.606Z,1.37
2022-12-29T08:04:58.556Z,1.50
2022-12-29T08:06:00.605Z,1.30
2022-12-29T08:07:03.643Z,1.10
2022-12-29T08:08:05.879Z,1.20
2022-12-29T08:09:15.051Z,1.20
2022-12-29T08:10:20.511Z,1.10
2022-12-29T08:11:23.720Z,1.53
2022-12-29T08:12:25.804Z,1.40
2022-12-29T08:13:30.135Z,1.20
2022-12-29T08:14:32.194Z,1.20
2022-12-29T08:15:35.230Z,1.37
2022-12-29T08:16:37.448Z,1.20
2022-12-29T08:17:40.662Z,1.30
2022-12-29T08:18:43.702Z,1.20
2022-12-29T08:19:46.805Z,1.40
2022-12-29T08:20:54.064Z,1.23
2022-12-29T08:21:58.716Z,1.27
2022-12-29T08:23:00.704Z,1.30
2022-12-29T08:24:03.825Z,1.27
2022-12-29T08:25:06.371Z,1.43
2022-12-29T08:26:09.385Z,1.57
2022-12-29T08:27:19.689Z,1.40
2022-12-29T08:28:23.610Z,1.33
2022-12-29T08:29:28.117Z,1.20
2022-12-29T08:30:31.126Z,1.23
2022-12-29T08:31:33.275Z,1.30
2022-12-29T08:32:36.400Z,1.40
2022-12-29T08:33:38.462Z,1.50
2022-12-29T08:34:41.473Z,1.20
2022-12-29T08:35:43.477Z,1.40
2022-12-29T08:36:46.487Z,1.67
2022-12-29T08:37:49.482Z,1.50
2022-12-29T08:38:51.556Z,1.50
2022-12-29T08:39:54.561Z,1.40
2022-12-29T08:40:56.612Z,1.40
2022-12-29T08:41:59.712Z,1.40
2022-12-29T08:43:01.757Z,1.43
2022-12-29T08:44:04.835Z,1.30
2022-12-29T08:45:09.774Z,1.57
2022-12-29T08:46:12.881Z,1.30
2022-12-29T08:47:15.985Z,1.50
2022-12-29T08:48:20.642Z,1.30
2022-12-29T08:49:23.665Z,1.30
2022-12-29T08:50:26.025Z,1.43
2022-12-29T08:51:29.002Z,1.37
2022-12-29T08:52:30.996Z,1.30
2022-12-29T08:53:34.006Z,1.37
2022-12-29T08:54:37.087Z,1.33
2022-12-29T08:55:39.157Z,1.50
2022-12-29T08:56:42.601Z,1.20
2022-12-29T08:57:45.754Z,1.40
2022-12-29T08:58:56.863Z,1.27
2022-12-29T08:59:59.879Z,1.43
2022-12-29T09:01:04.524Z,1.50
2022-12-29T09:02:08.047Z,1.20
2022-12-29T09:03:10.656Z,1.70
2022-12-29T09:04:16.474Z,1.60
2022-12-29T09:05:19.410Z,1.33
2022-12-29T09:06:22.969Z,1.57
2022-12-29T09:07:25.429Z,1.23
2022-12-29T09:08:28.487Z,1.40
2022-12-29T09:09:31.499Z,1.30
2022-12-29T09:10:33.559Z,1.77
2022-12-29T09:11:36.700Z,1.30
2022-12-29T09:12:39.811Z,1.40
2022-12-29T09:13:42.130Z,1.50
2022-12-29T09:14:45.404Z,1.40
2022-12-29T09:15:48.385Z,1.30
2022-12-29T09:17:13.846Z,1.50
2022-12-29T09:18:20.621Z,1.20
2022-12-29T09:19:23.718Z,1.37
2022-12-29T09:20:26.798Z,1.60
2022-12-29T09:21:29.310Z,1.40
2022-12-29T09:22:32.378Z,1.40
2022-12-29T09:23:36.635Z,1.50
2022-12-29T09:24:38.884Z,1.70
2022-12-29T09:25:43.915Z,1.40
2022-12-29T09:26:47.205Z,1.37
2022-12-29T09:27:50.394Z,1.80
2022-12-29T09:28:53.414Z,1.47
2022-12-29T09:29:55.515Z,1.57
2022-12-29T09:30:59.410Z,1.67
2022-12-29T09:32:06.880Z,1.47
2022-12-29T09:33:10.951Z,1.63
2022-12-29T09:34:12.987Z,1.60
2022-12-29T09:35:17.545Z,1.50
2022-12-29T09:36:20.632Z,1.30
2022-12-29T09:37:22.868Z,1.80
2022-12-29T09:38:28.051Z,1.77
2022-12-29T09:39:30.275Z,1.50
2022-12-29T09:40:35.017Z,1.60
2022-12-29T09:41:45.180Z,1.30
2022-12-29T09:42:57.420Z,1.30
2022-12-29T09:44:07.735Z,1.33
2022-12-29T09:45:18.249Z,1.63
2022-12-29T09:46:25.617Z,1.43
2022-12-29T09:47:31.172Z,1.20
2022-12-29T09:48:35.750Z,1.53
2022-12-29T09:49:46.874Z,1.70
2022-12-29T09:50:53.559Z,1.50
2022-12-29T09:52:02.333Z,1.60
2022-12-29T09:53:12.536Z,1.60
2022-12-29T09:54:38.236Z,1.90
2022-12-29T09:55:45.074Z,1.73
2022-12-29T09:56:48.406Z,1.20
2022-12-29T09:57:58.182Z,1.33
2022-12-29T09:59:06.367Z,1.63
2022-12-29T10:00:18.099Z,1.70
2022-12-29T10:01:29.589Z,1.50
2022-12-29T10:02:39.820Z,1.70
2022-12-29T10:03:48.733Z,1.60
2022-12-29T10:04:51.810Z,1.70
2022-12-29T10:06:01.996Z,1.50
2022-12-29T10:07:31.206Z,1.50
2022-12-29T10:08:41.377Z,1.50
2022-12-29T10:09:51.882Z,2.73
2022-12-29T10:10:58.924Z,1.60
2022-12-29T10:12:10.485Z,1.70
2022-12-29T10:13:29.549Z,1.70
2022-12-29T10:14:48.485Z,1.70
2022-12-29T10:16:01.819Z,1.57
2022-12-29T10:17:17.114Z,1.47
2022-12-29T10:18:39.842Z,1.73
2022-12-29T10:19:54.719Z,1.90
2022-12-29T10:21:01.690Z,1.90
2022-12-29T10:22:14.984Z,1.70
2022-12-29T10:23:28.376Z,1.87
2022-12-29T10:24:33.565Z,1.80
2022-12-29T10:25:40.851Z,1.70
2022-12-29T10:26:45.352Z,1.87
2022-12-29T10:27:49.997Z,1.70
2022-12-29T10:28:56.679Z,1.83
2022-12-29T10:30:00.475Z,1.73
2022-12-29T10:31:09.020Z,2.00
2022-12-29T10:32:24.301Z,1.70
2022-12-29T10:33:36.949Z,1.70
2022-12-29T10:34:44.451Z,1.80
2022-12-29T10:35:48.460Z,1.93
2022-12-29T10:36:56.950Z,1.80
2022-12-29T10:38:03.259Z,1.80
2022-12-29T10:39:16.247Z,1.63
2022-12-29T10:40:29.332Z,1.87
2022-12-29T10:41:39.088Z,1.97
2022-12-29T10:42:46.612Z,2.17
2022-12-29T10:43:53.366Z,2.07
2022-12-29T10:44:58.541Z,1.90
2022-12-29T10:46:06.634Z,1.87
2022-12-29T10:47:15.482Z,1.90
2022-12-29T10:48:28.545Z,1.90
2022-12-29T10:49:42.222Z,2.10
2022-12-29T10:50:45.325Z,1.77
2022-12-29T10:51:49.465Z,2.03
2022-12-29T10:52:53.254Z,2.10
2022-12-29T10:54:01.476Z,2.00
2022-12-29T10:55:08.838Z,1.90
2022-12-29T10:56:28.171Z,2.03
2022-12-29T10:57:35.578Z,1.70
2022-12-29T10:58:38.993Z,1.70
2022-12-29T10:59:43.104Z,1.70
2022-12-29T11:00:51.856Z,2.23
2022-12-29T11:02:02.173Z,1.90
2022-12-29T11:03:31.274Z,1.67
2022-12-29T11:04:45.795Z,2.30
2022-12-29T11:05:54.086Z,1.83
2022-12-29T11:06:57.819Z,2.13
2022-12-29T11:08:04.623Z,1.50
2022-12-29T11:09:16.553Z,1.83
2022-12-29T11:10:22.115Z,2.10
2022-12-29T11:11:27.576Z,2.03
2022-12-29T11:12:32.495Z,1.67
2022-12-29T11:13:39.393Z,2.00
2022-12-29T11:14:43.945Z,1.67
2022-12-29T11:15:48.269Z,1.90
2022-12-29T11:16:58.511Z,2.20
2022-12-29T11:18:01.543Z,1.87
2022-12-29T11:19:03.880Z,1.90
2022-12-29T11:20:28.744Z,2.00
2022-12-29T11:21:41.109Z,1.80
2022-12-29T11:22:45.301Z,1.60
2022-12-29T11:23:58.222Z,1.73
2022-12-29T11:25:12.950Z,1.67
2022-12-29T11:26:19.695Z,1.50
2022-12-29T11:27:24.188Z,2.03
2022-12-29T11:28:31.533Z,1.70
2022-12-29T11:29:42.169Z,1.43
2022-12-29T11:30:44.672Z,1.60
2022-12-29T11:31:49.516Z,2.00
2022-12-29T11:32:53.113Z,1.60
2022-12-29T11:33:56.263Z,1.57
2022-12-29T11:35:00.125Z,1.63
2022-12-29T11:36:07.491Z,2.23
2022-12-29T11:37:14.971Z,1.60
2022-12-29T11:38:21.718Z,1.80
2022-12-29T11:39:35.211Z,1.20
2022-12-29T11:40:40.883Z,1.57
2022-12-29T11:41:52.312Z,1.60
2022-12-29T11:42:58.541Z,1.40
2022-12-29T11:44:03.393Z,1.80
2022-12-29T11:45:11.106Z,1.53
2022-12-29T11:46:18.752Z,1.60
2022-12-29T11:47:31.071Z,1.60
2022-12-29T11:48:39.796Z,1.43
2022-12-29T11:49:42.995Z,1.37
2022-12-29T11:50:53.733Z,1.33
2022-12-29T11:51:57.862Z,1.60
2022-12-29T11:53:03.289Z,1.40
2022-12-29T11:54:07.890Z,2.10
2022-12-29T11:55:22.906Z,1.40
2022-12-29T11:56:40.536Z,1.40
2022-12-29T11:57:46.295Z,1.43
2022-12-29T11:58:50.403Z,1.20
2022-12-29T11:59:56.264Z,1.47
2022-12-29T12:01:01.850Z,1.33
2022-12-29T12:02:26.963Z,1.47
2022-12-29T12:03:32.959Z,1.20
2022-12-29T12:04:38.130Z,1.23
2022-12-29T12:05:46.781Z,1.50
2022-12-29T12:06:58.199Z,1.40
2022-12-29T12:08:14.918Z,1.60
2022-12-29T12:09:27.162Z,1.47
2022-12-29T12:10:32.805Z,1.60
2022-12-29T12:11:39.427Z,1.50
2022-12-29T12:12:48.116Z,1.50
2022-12-29T12:14:00.881Z,1.47
2022-12-29T12:15:18.562Z,1.50
2022-12-29T12:16:36.179Z,1.50
2022-12-29T12:17:47.146Z,1.40
2022-12-29T12:18:54.119Z,1.30
2022-12-29T12:20:03.364Z,1.40
2022-12-29T12:21:16.620Z,1.47
2022-12-29T12:22:27.099Z,1.60
2022-12-29T12:23:38.804Z,1.50
2022-12-29T12:24:49.639Z,1.50
2022-12-29T12:25:58.476Z,1.40
2022-12-29T12:27:05.817Z,1.40
2022-12-29T12:28:17.000Z,1.40
2022-12-29T12:29:27.394Z,1.90
2022-12-29T12:30:37.168Z,1.57
2022-12-29T12:31:48.197Z,1.50
2022-12-29T12:32:56.308Z,1.40
2022-12-29T12:34:03.215Z,1.53
2022-12-29T12:35:07.064Z,1.30
2022-12-29T12:36:26.570Z,1.70
2022-12-29T12:38:00.091Z,1.50
2022-12-29T12:39:11.787Z,1.43
2022-12-29T12:40:36.777Z,1.47
2022-12-29T12:41:51.219Z,1.53
2022-12-29T12:43:04.017Z,1.40
2022-12-29T12:44:19.676Z,1.70
2022-12-29T12:45:40.881Z,1.37
2022-12-29T12:47:11.963Z,1.77
2022-12-29T12:48:40.249Z,1.60
2022-12-29T12:50:12.558Z,1.43
2022-12-29T12:51:22.768Z,1.53
2022-12-29T12:52:35.455Z,1.77
2022-12-29T12:54:00.799Z,1.80
2022-12-29T12:55:36.324Z,1.70
2022-12-29T12:56:58.886Z,1.40
2022-12-29T12:58:10.337Z,1.60
2022-12-29T12:59:27.766Z,1.50
2022-12-29T13:00:35.122Z,1.50
2022-12-29T13:01:44.192Z,1.40
2022-12-29T13:03:01.851Z,1.67
2022-12-29T13:04:35.221Z,1.73
2022-12-29T13:05:51.500Z,1.50
2022-12-29T13:07:03.611Z,1.70
2022-12-29T13:08:28.969Z,1.87
2022-12-29T13:09:47.812Z,1.60
2022-12-29T13:10:56.118Z,1.70
2022-12-29T13:12:10.895Z,1.70
2022-12-29T13:13:45.518Z,1.70
2022-12-29T13:15:02.011Z,1.80
2022-12-29T13:16:14.470Z,1.57
2022-12-29T13:17:24.644Z,1.60
2022-12-29T13:18:37.891Z,1.60
2022-12-29T13:19:45.232Z,1.60
2022-12-29T13:20:50.881Z,1.87
2022-12-29T13:22:06.556Z,1.53
2022-12-29T13:23:17.865Z,1.70
2022-12-29T13:24:29.235Z,1.50
2022-12-29T13:25:39.587Z,1.77
2022-12-29T13:26:47.698Z,1.80
2022-12-29T13:27:56.874Z,1.60
2022-12-29T13:29:08.727Z,1.70
2022-12-29T13:30:16.181Z,1.60
2022-12-29T13:31:26.262Z,1.50
2022-12-29T13:32:46.698Z,1.60
2022-12-29T13:33:57.816Z,1.80
2022-12-29T13:35:12.840Z,1.70
2022-12-29T13:36:24.358Z,2.00
2022-12-29T13:37:29.026Z,1.83
2022-12-29T13:38:37.422Z,2.10
2022-12-29T13:39:44.016Z,1.77
2022-12-29T13:40:51.831Z,1.80
2022-12-29T13:41:58.074Z,1.60
2022-12-29T13:43:01.762Z,1.50
2022-12-29T13:44:06.323Z,1.80
2022-12-29T13:45:15.819Z,1.70
2022-12-29T13:46:24.095Z,1.50
2022-12-29T13:47:32.012Z,1.50
2022-12-29T13:48:41.224Z,1.63
2022-12-29T13:49:45.375Z,1.70
2022-12-29T13:50:53.415Z,1.80
2022-12-29T13:51:59.824Z,1.60
2022-12-29T13:53:10.297Z,2.23
2022-12-29T13:54:24.025Z,2.20
2022-12-29T13:55:30.396Z,1.70
2022-12-29T13:56:41.296Z,1.50
2022-12-29T13:57:53.634Z,1.80
2022-12-29T13:58:59.669Z,1.90
2022-12-29T14:00:06.647Z,1.60
2022-12-29T14:01:26.117Z,1.80
2022-12-29T14:02:35.509Z,2.00
2022-12-29T14:03:50.000Z,1.70
2022-12-29T14:05:01.894Z,1.80
2022-12-29T14:06:13.071Z,1.90
2022-12-29T14:07:19.495Z,1.80
2022-12-29T14:08:21.519Z,2.10
2022-12-29T14:09:40.261Z,1.70
2022-12-29T14:10:49.949Z,1.90
2022-12-29T14:11:53.000Z,1.90
2022-12-29T14:13:05.149Z,1.97
2022-12-29T14:14:20.189Z,1.93
2022-12-29T14:15:25.306Z,1.87
2022-12-29T14:16:34.048Z,1.70
2022-12-29T14:17:37.183Z,1.90
2022-12-29T14:18:45.604Z,2.00
2022-12-29T14:19:53.574Z,1.90
2022-12-29T14:20:59.533Z,2.00
2022-12-29T14:22:04.903Z,2.23
2022-12-29T14:23:26.624Z,2.00
2022-12-29T14:24:44.376Z,1.90
2022-12-29T14:26:01.473Z,2.10
2022-12-29T14:27:45.428Z,2.17
2022-12-29T14:28:50.493Z,1.93
2022-12-29T14:29:53.048Z,2.07
2022-12-29T14:30:58.548Z,2.30
2022-12-29T14:32:00.778Z,1.87
2022-12-29T14:33:05.649Z,2.03
2022-12-29T14:34:31.553Z,1.70
2022-12-29T14:35:42.528Z,2.03
2022-12-29T14:36:56.230Z,1.87
2022-12-29T14:38:07.863Z,2.03
2022-12-29T14:39:34.289Z,1.87
2022-12-29T14:40:36.412Z,2.20
2022-12-29T14:41:41.361Z,1.77
2022-12-29T14:42:44.366Z,1.90
2022-12-29T14:44:21.478Z,1.83
2022-12-29T14:45:29.790Z,1.70
2022-12-29T14:46:51.210Z,2.00
2022-12-29T14:47:54.665Z,2.00
2022-12-29T14:49:02.107Z,1.80
2022-12-29T14:50:07.566Z,1.93
2022-12-29T14:51:21.626Z,1.80
2022-12-29T14:52:28.090Z,1.70
2022-12-29T14:53:46.115Z,1.97
2022-12-29T14:54:52.554Z,1.77
2022-12-29T14:55:56.941Z,1.80
2022-12-29T14:57:01.339Z,2.23
2022-12-29T14:58:13.596Z,1.83
2022-12-29T14:59:18.816Z,1.93
2022-12-29T15:00:24.948Z,1.77
2022-12-29T15:01:41.664Z,1.80
2022-12-29T15:02:48.689Z,1.93
2022-12-29T15:03:55.351Z,2.00
2022-12-29T15:05:01.213Z,1.90
2022-12-29T15:06:09.993Z,2.10
2022-12-29T15:07:13.943Z,1.80